Time;durP1;ratioP1;P1;durP2;ratioP2;P2;SDS_P1;SDS_P2;PMS_P1;PMS_P2;Temp;Humidity;BMP_temperature;BMP_pressure;BME280_temperature;BME280_humidity;BME280_pressure;Samples;Min_cycle;Max_cycle;Signal;HPM_P1;HPM_P2
2022/04/06 00:00:12;;;;;;;19.27;9.13;;;;;;;9.12;89.08;100462.06;5024109;28;20017;-80
2022/04/06 00:02:39;;;;;;;25.27;8.82;;;;;;;9.11;89.26;100468.13;5025012;28;20249;-80
2022/04/06 00:05:09;;;;;;;26.65;9.45;;;;;;;9.11;89.34;100460.31;5025222;28;20184;-80
2022/04/06 00:07:35;;;;;;;21.85;8.85;;;;;;;9.09;89.39;100453.31;5023974;28;20067;-80
2022/04/06 00:10:01;;;;;;;21.80;8.82;;;;;;;9.08;89.30;100449.84;5025011;28;20026;-80
2022/04/06 00:12:26;;;;;;;20.08;8.57;;;;;;;9.08;89.36;100449.84;5025083;28;20017;-80
2022/04/06 00:14:51;;;;;;;23.50;8.27;;;;;;;9.08;88.97;100451.56;5025032;28;20087;-80
2022/04/06 00:17:17;;;;;;;21.75;8.82;;;;;;;9.07;89.14;100450.69;5024825;28;20025;-80
2022/04/06 00:19:42;;;;;;;22.92;8.55;;;;;;;9.10;89.22;100444.69;5024914;28;20038;-80
2022/04/06 00:22:08;;;;;;;25.02;9.07;;;;;;;9.06;88.77;100446.31;5024836;28;20018;-80
2022/04/06 00:24:34;;;;;;;24.27;9.25;;;;;;;9.05;89.20;100442.84;5024176;28;20030;-81
2022/04/06 00:26:59;;;;;;;24.50;8.75;;;;;;;9.05;89.09;100444.56;5025034;28;20315;-80
2022/04/06 00:29:25;;;;;;;23.63;8.50;;;;;;;9.04;89.18;100442.81;5024701;28;20017;-80
2022/04/06 00:31:50;;;;;;;21.92;8.23;;;;;;;9.02;89.46;100444.50;5024723;28;20025;-80
2022/04/06 00:34:15;;;;;;;22.00;9.13;;;;;;;9.03;89.03;100436.72;5024440;28;20032;-80
2022/04/06 00:36:41;;;;;;;22.90;8.05;;;;;;;9.02;89.07;100434.09;5024788;28;20179;-80
2022/04/06 00:39:06;;;;;;;21.13;7.78;;;;;;;9.02;89.13;100431.50;5024120;28;20026;-80
2022/04/06 00:41:32;;;;;;;19.27;7.72;;;;;;;9.01;88.95;100433.22;5024526;28;20088;-80
2022/04/06 00:44:15;;;;;;;19.35;8.10;;;;;;;9.01;89.22;100434.97;5023141;28;20169;-80
2022/04/06 00:46:42;;;;;;;24.33;7.68;;;;;;;9.00;88.89;100425.41;5024646;28;20304;-80
2022/04/06 00:49:13;;;;;;;21.58;7.40;;;;;;;8.98;88.96;100421.88;5024367;28;20088;-81
2022/04/06 00:51:46;;;;;;;24.33;7.57;;;;;;;8.98;89.04;100427.97;5023112;28;20168;-80
2022/04/06 00:54:14;;;;;;;22.85;7.45;;;;;;;8.97;89.06;100435.72;5023865;28;20029;-80
2022/04/06 00:56:40;;;;;;;24.92;7.68;;;;;;;8.96;88.98;100433.97;5024344;28;20026;-80
2022/04/06 00:59:06;;;;;;;19.95;7.10;;;;;;;8.96;88.84;100433.97;5024196;28;20184;-81
2022/04/06 01:01:31;;;;;;;18.42;7.38;;;;;;;8.95;89.05;100427.00;5024171;28;20040;-80
2022/04/06 01:03:56;;;;;;;19.38;7.32;;;;;;;8.94;88.81;100420.94;5023978;28;20311;-80
2022/04/06 01:06:22;;;;;;;20.63;7.15;;;;;;;8.94;88.98;100420.94;5022877;28;20264;-80
2022/04/06 01:08:47;;;;;;;18.75;7.30;;;;;;;8.94;88.97;100420.06;5023906;28;20024;-80
2022/04/06 01:11:13;;;;;;;20.13;7.30;;;;;;;8.92;89.01;100413.94;5024027;28;20010;-80
2022/04/06 01:13:39;;;;;;;20.80;6.97;;;;;;;8.91;88.98;100405.28;5023931;28;20180;-80
2022/04/06 01:16:05;;;;;;;17.27;6.40;;;;;;;8.91;88.88;100404.38;5023895;28;20022;-81
2022/04/06 01:18:33;;;;;;;17.58;6.55;;;;;;;8.90;89.14;100413.03;5023897;28;20080;-80
2022/04/06 01:20:59;;;;;;;17.20;6.70;;;;;;;8.91;88.88;100406.97;5022850;28;20117;-80
2022/04/06 01:23:24;;;;;;;22.25;6.88;;;;;;;8.87;88.87;100404.31;5022916;28;20339;-80
2022/04/06 01:25:50;;;;;;;19.48;6.88;;;;;;;8.86;88.87;100405.19;5024202;28;20026;-81
2022/04/06 01:28:15;;;;;;;20.58;6.57;;;;;;;8.90;88.52;100400.03;5023759;28;20033;-76
2022/04/06 01:30:40;;;;;;;20.33;6.30;;;;;;;8.92;88.20;100407.03;5023827;28;20018;-75
2022/04/06 01:33:06;;;;;;;20.45;6.05;;;;;;;8.88;88.41;100406.06;5024246;28;20072;-75
2022/04/06 01:35:31;;;;;;;18.38;6.45;;;;;;;8.85;88.17;100397.34;5023470;28;20085;-75
2022/04/06 01:37:56;;;;;;;19.63;6.15;;;;;;;8.86;88.30;100405.19;5023745;28;20093;-76
2022/04/06 01:40:25;;;;;;;20.08;5.93;;;;;;;8.85;88.14;100398.22;5023508;28;20244;-76
2022/04/06 01:42:50;;;;;;;18.23;6.07;;;;;;;8.84;87.97;100399.03;5023583;28;20030;-76
2022/04/06 01:45:15;;;;;;;21.02;6.15;;;;;;;8.83;88.26;100397.28;5023369;28;20072;-76
2022/04/06 01:47:40;;;;;;;17.80;6.40;;;;;;;8.84;88.50;100401.66;5023826;28;20025;-75
2022/04/06 01:52:50;;;;;;;19.25;5.68;;;;;;;8.83;87.81;100399.00;5023544;28;20029;-75
2022/04/06 01:55:15;;;;;;;19.30;6.13;;;;;;;8.83;87.70;100399.88;5022180;28;20013;-75
2022/04/06 01:57:41;;;;;;;18.77;5.50;;;;;;;8.80;88.04;100392.03;5023660;28;20028;-75
2022/04/06 02:00:10;;;;;;;16.27;4.95;;;;;;;8.80;87.73;100386.81;5023278;28;20081;-75
2022/04/06 02:02:36;;;;;;;20.08;5.38;;;;;;;8.80;87.65;100398.94;5023714;28;20034;-75
2022/04/06 02:05:01;;;;;;;15.90;5.15;;;;;;;8.79;87.66;100387.69;5023416;28;20048;-75
2022/04/06 02:07:27;;;;;;;20.05;5.78;;;;;;;8.79;87.65;100385.09;5022277;28;20092;-75
2022/04/06 02:09:53;;;;;;;19.08;5.13;;;;;;;8.79;87.52;100389.38;5023262;28;20181;-75
2022/04/06 02:12:22;;;;;;;19.52;5.53;;;;;;;8.80;87.07;100380.75;5023563;28;20029;-75
2022/04/06 02:14:48;;;;;;;15.88;4.97;;;;;;;8.77;87.29;100381.56;5022206;28;20013;-75
2022/04/06 02:17:13;;;;;;;13.70;4.70;;;;;;;8.78;87.03;100379.88;5023182;28;20107;-76
2022/04/06 02:19:39;;;;;;;14.73;5.05;;;;;;;8.77;86.68;100378.09;5023084;28;20034;-76
2022/04/06 02:22:06;;;;;;;17.02;4.70;;;;;;;8.75;86.58;100380.66;5023353;28;20025;-75
2022/04/06 02:24:32;;;;;;;12.60;4.68;;;;;;;8.76;86.41;100374.63;5023270;28;20026;-75
2022/04/06 02:26:57;;;;;;;15.52;5.15;;;;;;;8.74;86.62;100371.09;5023506;28;20014;-75
2022/04/06 02:29:23;;;;;;;15.55;4.90;;;;;;;8.72;86.98;100375.41;5023648;28;20160;-76
2022/04/06 02:31:48;;;;;;;16.50;4.82;;;;;;;8.73;86.55;100365.88;5023102;28;20033;-75
2022/04/06 02:34:13;;;;;;;16.50;4.72;;;;;;;8.71;86.67;100378.81;5023228;28;20040;-75
2022/04/06 02:36:39;;;;;;;15.65;4.40;;;;;;;8.70;86.31;100367.56;5022040;28;20056;-80
2022/04/06 02:39:04;;;;;;;13.02;5.05;;;;;;;8.69;86.51;100367.53;5023415;28;20191;-79
2022/04/06 02:41:30;;;;;;;13.48;4.28;;;;;;;8.68;86.39;100364.03;5021767;28;20017;-80
2022/04/06 02:43:55;;;;;;;18.85;4.95;;;;;;;8.68;86.31;100366.63;5023280;28;20021;-80
2022/04/06 02:46:20;;;;;;;17.15;4.82;;;;;;;8.67;85.91;100366.59;5021580;28;20021;-80
2022/04/06 02:48:46;;;;;;;13.77;4.72;;;;;;;8.66;85.66;100364.84;5022962;28;20044;-80
2022/04/06 02:51:12;;;;;;;14.10;4.20;;;;;;;8.65;85.89;100360.50;5026356;28;20056;-80
2022/04/06 02:53:37;;;;;;;15.80;4.40;;;;;;;8.64;85.66;100362.22;5026439;28;20021;-80
2022/04/06 02:56:03;;;;;;;12.88;4.60;;;;;;;8.64;85.66;100354.41;5018253;28;20097;-80
2022/04/06 02:58:28;;;;;;;16.15;4.72;;;;;;;8.61;85.74;100359.53;5017889;28;20328;-80
2022/04/06 03:00:54;;;;;;;17.65;4.43;;;;;;;8.60;85.27;100351.72;5016121;28;20257;-80
2022/04/06 03:03:20;;;;;;;14.70;4.40;;;;;;;8.58;85.70;100353.41;5009750;28;20122;-79
2022/04/06 03:05:46;;;;;;;15.35;4.43;;;;;;;8.57;85.65;100346.47;5019261;28;20105;-80
2022/04/06 03:08:11;;;;;;;14.88;4.07;;;;;;;8.57;85.71;100341.25;5019915;28;20154;-75
2022/04/06 03:10:36;;;;;;;16.58;4.32;;;;;;;8.57;84.88;100338.66;5017288;28;20018;-75
2022/04/06 03:13:01;;;;;;;13.50;4.03;;;;;;;8.55;84.76;100341.22;5018774;28;20021;-75
2022/04/06 03:15:27;;;;;;;15.35;4.65;;;;;;;8.53;85.27;100330.81;5014760;28;20030;-75
2022/04/06 03:17:52;;;;;;;10.93;4.20;;;;;;;8.51;84.91;100336.81;5021107;28;20290;-75
2022/04/06 03:20:18;;;;;;;20.38;4.05;;;;;;;8.50;84.96;100335.03;5023837;28;20022;-75
2022/04/06 03:22:43;;;;;;;11.32;3.90;;;;;;;8.48;84.95;100327.22;5015099;28;20022;-75
2022/04/06 03:25:09;;;;;;;12.23;3.85;;;;;;;8.50;84.61;100335.03;5016378;28;20022;-75
2022/04/06 03:27:35;;;;;;;18.67;4.68;;;;;;;8.48;84.17;100324.63;5021492;28;20029;-75
2022/04/06 03:30:02;;;;;;;15.90;4.00;;;;;;;8.50;83.62;100322.06;5015777;28;20081;-75
2022/04/06 03:32:27;;;;;;;12.70;3.72;;;;;;;8.49;83.67;100316.00;5012507;28;20168;-75
2022/04/06 03:34:53;;;;;;;15.23;4.10;;;;;;;8.48;83.49;100311.63;5017396;28;20014;-75
2022/04/06 03:37:18;;;;;;;13.52;4.28;;;;;;;8.49;83.33;100307.34;5016385;28;20014;-80
2022/04/06 03:39:43;;;;;;;13.60;3.92;;;;;;;8.46;83.63;100302.94;5013020;28;20068;-80
2022/04/06 03:42:09;;;;;;;16.15;3.45;;;;;;;8.45;83.12;100295.13;5010879;28;20017;-80
2022/04/06 03:44:34;;;;;;;11.35;3.83;;;;;;;8.46;83.24;100294.28;5017135;28;20009;-80
2022/04/06 03:47:00;;;;;;;15.65;4.20;;;;;;;8.44;83.00;100296.81;5018929;28;20028;-80
2022/04/06 03:49:25;;;;;;;15.50;4.22;;;;;;;8.43;83.58;100289.88;5024748;28;20056;-79
2022/04/06 03:51:50;;;;;;;14.23;4.05;;;;;;;8.42;83.50;100295.03;5011025;28;20237;-79
2022/04/06 03:54:16;;;;;;;14.50;4.35;;;;;;;8.41;83.48;100288.94;5024200;28;20264;-80
2022/04/06 03:56:41;;;;;;;14.82;3.92;;;;;;;8.42;83.04;100290.69;5012294;28;20089;-79
2022/04/06 03:59:06;;;;;;;12.52;3.60;;;;;;;8.42;83.09;100284.63;5015813;28;20026;-79
2022/04/06 04:01:35;;;;;;;10.32;3.33;;;;;;;8.40;83.18;100284.59;5012911;28;20019;-80
2022/04/06 04:04:00;;;;;;;13.15;3.63;;;;;;;8.40;82.31;100287.19;5014030;28;20097;-80
2022/04/06 04:06:26;;;;;;;11.82;4.13;;;;;;;8.40;82.52;100295.00;5016082;28;20065;-76
2022/04/06 04:08:51;;;;;;;10.63;3.50;;;;;;;8.40;82.42;100292.41;5018296;28;20022;-75
2022/04/06 04:11:16;;;;;;;11.00;3.20;;;;;;;8.40;82.50;100294.09;5012877;28;20193;-75
2022/04/06 04:13:41;;;;;;;11.45;3.63;;;;;;;8.43;82.14;100291.56;5014615;28;20014;-75
2022/04/06 04:16:08;;;;;;;10.10;3.58;;;;;;;8.41;82.37;100293.25;5022725;28;20021;-75
2022/04/06 04:18:33;;;;;;;12.93;4.15;;;;;;;8.41;81.98;100288.94;5021877;28;20057;-75
2022/04/06 04:23:42;;;;;;;9.57;3.00;;;;;;;8.39;82.45;100284.56;5013847;28;20029;-75
2022/04/06 04:26:08;;;;;;;10.65;3.28;;;;;;;8.39;82.82;100281.97;5017399;28;20021;-75
2022/04/06 04:28:33;;;;;;;11.50;3.30;;;;;;;8.39;82.56;100281.97;5017123;28;20025;-75
2022/04/06 04:30:58;;;;;;;11.40;3.60;;;;;;;8.40;82.86;100281.09;5016837;28;20077;-75
2022/04/06 04:33:24;;;;;;;10.52;3.60;;;;;;;8.40;83.40;100276.81;5016399;28;20145;-75
2022/04/06 04:35:49;;;;;;;12.68;4.25;;;;;;;8.41;83.40;100278.53;5018405;28;20034;-75
2022/04/06 04:38:14;;;;;;;15.73;4.20;;;;;;;8.41;83.70;100281.16;5021351;28;20316;-80
2022/04/06 04:40:40;;;;;;;16.30;4.90;;;;;;;8.42;83.91;100272.53;5018961;28;20076;-80
2022/04/06 04:43:05;;;;;;;13.90;4.68;;;;;;;8.42;84.21;100277.72;5019436;28;20265;-80
2022/04/06 04:45:30;;;;;;;16.23;4.72;;;;;;;8.42;84.21;100271.66;5019571;28;20052;-80
2022/04/06 04:47:57;;;;;;;14.52;5.00;;;;;;;8.44;84.38;100270.84;5009511;28;20052;-79
2022/04/06 04:50:22;;;;;;;20.27;5.57;;;;;;;8.42;84.58;100271.66;5015704;28;20025;-80
2022/04/06 04:52:47;;;;;;;13.57;4.97;;;;;;;8.42;85.01;100269.94;5016573;28;20033;-80
2022/04/06 04:55:13;;;;;;;13.73;5.63;;;;;;;8.42;84.86;100259.53;5019523;28;20013;-80
2022/04/06 04:57:38;;;;;;;16.17;5.63;;;;;;;8.42;84.27;100262.13;5019383;28;20021;-79
2022/04/06 05:00:06;;;;;;;18.23;6.30;;;;;;;8.43;85.19;100263.91;5015327;28;20018;-80
2022/04/06 05:02:31;;;;;;;19.85;5.88;;;;;;;8.42;85.30;100262.13;5007944;28;20089;-79
2022/04/06 05:04:57;;;;;;;23.27;5.93;;;;;;;8.46;84.72;100253.63;5015944;28;20076;-80
2022/04/06 05:07:22;;;;;;;19.00;5.80;;;;;;;8.45;85.33;100262.25;5019334;28;20207;-80
2022/04/06 05:09:47;;;;;;;20.92;6.95;;;;;;;8.45;85.14;100248.38;5015015;28;20212;-80
2022/04/06 05:12:13;;;;;;;15.43;5.57;;;;;;;8.44;84.98;100247.50;5017919;28;20018;-79
2022/04/06 05:14:38;;;;;;;18.73;6.57;;;;;;;8.44;84.97;100246.59;5011454;28;20340;-79
2022/04/06 05:17:04;;;;;;;19.98;6.22;;;;;;;8.46;84.80;100263.13;5009895;28;20077;-80
2022/04/06 05:19:29;;;;;;;16.50;5.93;;;;;;;8.44;84.68;100247.50;5014242;28;20050;-80
2022/04/06 05:21:54;;;;;;;14.73;5.53;;;;;;;8.46;84.90;100255.34;5016677;28;20073;-80
2022/04/06 05:24:19;;;;;;;16.75;5.60;;;;;;;8.49;84.57;100256.28;5010834;28;20093;-80
2022/04/06 05:26:45;;;;;;;17.48;5.28;;;;;;;8.46;84.75;100248.41;5016897;28;20157;-80
2022/04/06 05:29:10;;;;;;;19.77;5.68;;;;;;;8.46;84.63;100243.22;5011703;28;20033;-80
2022/04/06 05:31:36;;;;;;;15.38;5.03;;;;;;;8.46;84.59;100247.56;5017503;28;20218;-80
2022/04/06 05:34:01;;;;;;;18.95;5.47;;;;;;;8.48;84.15;100238.06;5011877;28;20093;-80
2022/04/06 05:36:28;;;;;;;14.32;5.65;;;;;;;8.47;84.38;100236.31;5013990;28;20029;-75
2022/04/06 05:38:54;;;;;;;22.27;5.20;;;;;;;8.48;84.36;100238.06;5006968;28;20026;-75
2022/04/06 05:41:20;;;;;;;16.90;5.25;;;;;;;8.47;84.38;100239.81;5022232;28;20176;-75
2022/04/06 05:43:45;;;;;;;18.95;4.85;;;;;;;8.46;84.52;100238.03;5023703;28;20021;-75
2022/04/06 05:46:10;;;;;;;13.40;4.70;;;;;;;8.46;84.22;100244.97;5023438;28;20272;-75
2022/04/06 05:48:36;;;;;;;13.30;4.60;;;;;;;8.46;84.32;100235.44;5018703;28;20261;-75
2022/04/06 05:51:02;;;;;;;13.63;4.07;;;;;;;8.46;84.05;100229.38;5013016;28;20089;-75
2022/04/06 05:53:27;;;;;;;16.77;4.85;;;;;;;8.45;84.24;100238.88;5019988;28;20022;-75
2022/04/06 05:55:53;;;;;;;10.73;4.10;;;;;;;8.44;84.04;100226.72;5015270;28;20311;-75
2022/04/06 05:58:18;;;;;;;15.52;4.13;;;;;;;8.46;84.02;100230.25;5012430;28;20035;-75
2022/04/06 06:00:44;;;;;;;12.55;3.92;;;;;;;8.51;83.02;100230.34;5011378;28;20092;-75
2022/04/06 06:03:09;;;;;;;13.95;3.58;;;;;;;8.49;82.69;100232.03;5018092;28;20172;-75
2022/04/06 06:05:34;;;;;;;11.15;4.30;;;;;;;8.50;82.86;100237.28;5004625;28;20340;-75
2022/04/06 06:08:00;;;;;;;9.57;3.55;;;;;;;8.53;81.18;100242.53;5017058;28;20129;-75
2022/04/06 06:10:25;;;;;;;13.35;3.70;;;;;;;8.53;82.51;100242.53;5013198;28;20169;-75
2022/04/06 06:12:50;;;;;;;12.82;3.50;;;;;;;8.52;82.27;100248.56;5013826;28;20085;-77
2022/04/06 06:15:16;;;;;;;9.13;2.75;;;;;;;8.55;80.02;100254.69;5013404;28;20018;-75
2022/04/06 06:17:41;;;;;;;10.98;2.70;;;;;;;8.60;78.92;100245.25;5011572;28;20253;-75
2022/04/06 06:20:07;;;;;;;9.55;3.00;;;;;;;8.59;79.80;100251.28;5014391;28;20109;-75
2022/04/06 06:22:34;;;;;;;8.10;2.80;;;;;;;8.58;79.63;100242.63;5024000;28;20032;-75
2022/04/06 06:24:59;;;;;;;11.23;2.63;;;;;;;8.60;78.82;100253.91;5025148;28;20033;-75
2022/04/06 06:27:25;;;;;;;10.07;3.03;;;;;;;8.59;79.23;100241.78;5022935;28;20104;-75
2022/04/06 06:29:50;;;;;;;6.82;2.50;;;;;;;8.61;78.19;100244.41;5024319;28;20034;-75
2022/04/06 06:32:16;;;;;;;8.13;2.40;;;;;;;8.63;76.61;100250.50;5026401;28;20081;-75
2022/04/06 06:34:41;;;;;;;8.98;2.90;;;;;;;8.62;76.78;100235.78;5016149;28;20380;-75
2022/04/06 06:37:07;;;;;;;6.95;2.40;;;;;;;8.66;76.50;100247.97;5023656;28;20100;-80
2022/04/06 06:39:32;;;;;;;6.40;2.55;;;;;;;8.66;76.07;100233.28;5025404;28;20089;-80
2022/04/06 06:41:57;;;;;;;10.48;2.40;;;;;;;8.66;75.67;100242.78;5024838;28;20029;-80
2022/04/06 06:44:23;;;;;;;8.38;2.55;;;;;;;8.67;76.13;100239.34;5023438;28;20033;-80
2022/04/06 06:46:48;;;;;;;5.82;2.28;;;;;;;8.67;76.22;100234.16;5025502;28;20212;-79
2022/04/06 06:49:14;;;;;;;8.25;2.22;;;;;;;8.68;75.20;100225.53;5025003;28;20030;-80
2022/04/06 06:51:40;;;;;;;7.10;1.88;;;;;;;8.72;74.91;100234.25;5024844;28;20319;-79
2022/04/06 06:54:06;;;;;;;7.45;2.40;;;;;;;8.72;75.31;100229.03;5025490;28;20037;-79
2022/04/06 06:56:31;;;;;;;7.85;2.17;;;;;;;8.75;74.17;100231.69;5026440;28;20028;-80
2022/04/06 06:58:56;;;;;;;6.43;1.88;;;;;;;8.75;75.32;100230.00;5026590;28;20106;-80
2022/04/06 07:01:22;;;;;;;7.93;2.55;;;;;;;8.75;74.74;100227.41;5026259;28;20014;-80
2022/04/06 07:03:47;;;;;;;6.47;1.77;;;;;;;8.77;74.14;100215.31;5026463;28;20021;-79
2022/04/06 07:06:13;;;;;;;8.00;2.05;;;;;;;8.78;74.64;100217.06;5026315;28;20080;-76
2022/04/06 07:08:38;;;;;;;5.38;1.75;;;;;;;8.80;74.38;100219.69;5026181;28;20026;-76
2022/04/06 07:11:04;;;;;;;6.55;1.55;;;;;;;8.80;74.76;100220.56;5024899;28;20239;-75
2022/04/06 07:13:29;;;;;;;7.90;1.77;;;;;;;8.82;74.36;100223.19;5023062;28;20253;-75
2022/04/06 07:15:54;;;;;;;8.38;1.90;;;;;;;8.83;73.86;100220.63;5013987;28;20092;-75
2022/04/06 07:18:22;;;;;;;10.38;2.20;;;;;;;8.82;74.84;100220.59;5024849;28;20108;-75
2022/04/06 07:20:48;;;;;;;4.55;1.83;;;;;;;8.81;75.01;100222.34;5025835;28;20089;-75
2022/04/06 07:23:13;;;;;;;8.75;2.63;;;;;;;8.84;74.58;100217.19;5025991;28;20014;-75
2022/04/06 07:25:40;;;;;;;9.00;2.72;;;;;;;8.86;75.80;100210.31;5025997;28;20021;-75
2022/04/06 07:28:06;;;;;;;11.57;3.63;;;;;;;8.85;77.05;100202.50;5026039;28;20033;-75
2022/04/06 07:30:31;;;;;;;14.25;3.28;;;;;;;8.85;78.09;100202.50;5024730;28;20017;-75
2022/04/06 07:32:58;;;;;;;11.13;3.25;;;;;;;8.87;78.43;100206.00;5025737;28;20021;-75
2022/04/06 07:35:24;;;;;;;10.80;3.55;;;;;;;8.86;78.48;100199.03;5025065;28;20322;-75
2022/04/06 07:37:51;;;;;;;9.23;3.90;;;;;;;8.84;79.41;100196.41;5025629;28;20026;-79
2022/04/06 07:40:18;;;;;;;10.27;3.67;;;;;;;8.84;79.47;100196.41;5025591;28;20028;-79
2022/04/06 07:42:44;;;;;;;10.35;3.83;;;;;;;8.84;79.50;100199.00;5025774;28;20029;-80
2022/04/06 07:45:16;;;;;;;11.48;3.80;;;;;;;8.85;79.70;100194.72;5022154;28;20018;-79
2022/04/06 07:47:43;;;;;;;10.35;3.65;;;;;;;8.84;80.14;100190.34;5017644;28;20172;-79
2022/04/06 07:50:09;;;;;;;10.00;3.80;;;;;;;8.86;80.04;100186.03;5025307;28;20022;-80
2022/04/06 07:52:38;;;;;;;10.60;4.18;;;;;;;8.87;79.34;100191.28;5025297;28;20088;-80
2022/04/06 07:55:06;;;;;;;12.90;4.60;;;;;;;8.91;79.71;100178.34;5024958;28;20223;-80
2022/04/06 07:57:32;;;;;;;13.27;3.28;;;;;;;8.94;80.13;100175.81;5024266;28;20149;-80
2022/04/06 07:59:58;;;;;;;9.95;3.88;;;;;;;8.98;80.44;100170.72;5024838;28;20260;-80
2022/04/06 08:02:23;;;;;;;12.90;3.95;;;;;;;9.05;80.55;100175.19;5025109;28;20037;-80
2022/04/06 08:04:50;;;;;;;14.18;3.97;;;;;;;9.12;79.48;100170.09;5024624;28;20135;-80
2022/04/06 08:07:16;;;;;;;10.65;3.95;;;;;;;9.15;79.19;100171.03;5025206;28;20085;-80
2022/04/06 08:09:41;;;;;;;12.07;4.03;;;;;;;9.20;79.05;100168.53;5025170;28;20033;-79
2022/04/06 08:12:06;;;;;;;8.27;3.85;;;;;;;9.17;79.03;100169.31;5025123;28;20010;-80
2022/04/06 08:14:32;;;;;;;12.65;3.92;;;;;;;9.16;79.28;100167.56;5024999;28;20029;-79
2022/04/06 08:16:57;;;;;;;10.35;3.90;;;;;;;9.14;79.22;100173.56;5024871;28;20261;-79
2022/04/06 08:19:24;;;;;;;11.20;3.72;;;;;;;9.14;79.29;100178.78;5024765;28;20037;-79
2022/04/06 08:21:50;;;;;;;9.73;3.78;;;;;;;9.14;79.19;100176.19;5024852;28;20021;-79
2022/04/06 08:24:15;;;;;;;11.43;3.85;;;;;;;9.10;79.13;100174.41;5024940;28;20049;-79
2022/04/06 08:26:41;;;;;;;9.77;3.70;;;;;;;9.15;78.62;100185.75;5023574;28;20256;-79
2022/04/06 08:29:06;;;;;;;9.07;3.30;;;;;;;9.08;79.25;100176.97;5024671;28;20291;-79
2022/04/06 08:31:32;;;;;;;10.55;3.67;;;;;;;9.07;79.34;100177.81;5010438;28;20021;-80
2022/04/06 08:33:57;;;;;;;9.60;3.88;;;;;;;9.07;79.05;100179.50;5023693;28;20044;-80
2022/04/06 08:36:23;;;;;;;12.60;3.70;;;;;;;9.07;79.25;100179.50;5022145;28;20005;-80
2022/04/06 08:38:48;;;;;;;11.48;3.80;;;;;;;9.07;79.45;100171.72;5024306;28;20032;-79
2022/04/06 08:41:24;;;;;;;13.90;3.97;;;;;;;9.06;79.10;100170.84;5024544;28;20168;-80
2022/04/06 08:43:53;;;;;;;11.20;3.60;;;;;;;9.06;79.29;100176.03;5024586;28;20068;-80
2022/04/06 08:46:20;;;;;;;11.50;3.70;;;;;;;9.06;79.08;100170.84;5023037;28;20284;-79
2022/04/06 08:48:51;;;;;;;12.02;3.60;;;;;;;9.06;79.33;100176.03;5024493;28;20164;-79
2022/04/06 08:51:18;;;;;;;11.23;3.58;;;;;;;9.09;79.33;100160.50;5024339;28;20028;-79
2022/04/06 08:53:44;;;;;;;11.85;3.90;;;;;;;9.12;80.05;100157.09;5023213;28;20018;-79
2022/04/06 08:56:12;;;;;;;10.10;3.50;;;;;;;9.15;80.19;100155.44;5022720;28;20256;-79
2022/04/06 08:58:38;;;;;;;9.30;3.55;;;;;;;9.22;79.30;100166.81;5024532;28;20057;-80
2022/04/06 09:01:04;;;;;;;9.13;3.40;;;;;;;9.22;79.84;100165.09;5023956;28;20157;-79
2022/04/06 09:03:29;;;;;;;8.45;3.63;;;;;;;9.24;79.54;100162.53;5024522;28;20299;-80
2022/04/06 09:06:06;;;;;;;13.38;4.53;;;;;;;9.27;79.76;100166.88;5023968;28;20045;-80
2022/04/06 09:08:40;;;;;;;7.10;3.80;;;;;;;9.25;80.10;100166.84;5024176;28;20037;-79
2022/04/06 09:11:07;;;;;;;9.45;3.85;;;;;;;9.25;79.89;100179.00;5023326;28;20045;-80
2022/04/06 09:13:32;;;;;;;8.60;3.97;;;;;;;9.30;80.18;100157.44;5023112;28;20084;-79
2022/04/06 09:16:01;;;;;;;9.23;3.85;;;;;;;9.23;81.65;100164.22;5024715;28;20033;-80
2022/04/06 09:18:34;;;;;;;9.50;4.10;;;;;;;9.27;81.14;100174.69;5023598;28;20100;-81
2022/04/06 09:21:00;;;;;;;10.68;4.10;;;;;;;9.29;81.07;100160.00;5022806;28;20049;-77
2022/04/06 09:23:29;;;;;;;10.05;3.97;;;;;;;9.31;81.52;100168.69;5023437;28;20182;-76
2022/04/06 09:25:54;;;;;;;9.80;3.97;;;;;;;9.32;81.63;100166.13;5023541;28;20026;-76
2022/04/06 09:28:19;;;;;;;11.20;4.00;;;;;;;9.36;80.57;100169.66;5023863;28;20021;-76
2022/04/06 09:30:46;;;;;;;12.15;4.63;;;;;;;9.34;81.63;100160.94;5023945;28;20022;-76
2022/04/06 09:33:19;;;;;;;10.85;4.60;;;;;;;9.33;80.70;100164.41;5023706;28;20085;-76
2022/04/06 09:35:45;;;;;;;9.07;4.03;;;;;;;9.33;80.70;100167.88;5023158;28;20040;-76
2022/04/06 09:38:22;;;;;;;10.73;4.22;;;;;;;9.33;80.31;100164.41;5023788;28;20025;-76
2022/04/06 09:40:50;;;;;;;13.95;4.13;;;;;;;9.34;80.07;100160.94;5023901;28;20241;-76
2022/04/06 09:43:27;;;;;;;12.20;3.92;;;;;;;9.36;80.06;100160.13;5023643;28;20022;-76
2022/04/06 09:48:52;;;;;;;8.85;3.72;;;;;;;9.35;80.73;100155.78;5023677;28;20041;-76
2022/04/06 09:51:17;;;;;;;;;;;;;;;9.39;80.14;100160.19;5024194;28;20026;-76
2022/04/06 09:53:45;;;;;;;11.00;3.63;;;;;;;9.40;79.56;100156.75;5023688;28;19900;-76
2022/04/06 09:56:11;;;;;;;13.02;4.25;;;;;;;9.38;80.64;100163.66;5038886;28;20273;-76
2022/04/06 09:58:36;;;;;;;15.10;4.28;;;;;;;9.39;81.83;100151.50;5027416;28;20084;-76
2022/04/06 10:01:02;;;;;;;9.38;4.00;;;;;;;9.41;81.51;100155.00;5027544;28;20026;-77
2022/04/06 10:03:27;;;;;;;13.43;4.18;;;;;;;9.42;82.08;100148.97;5027585;28;20029;-76
2022/04/06 10:05:53;;;;;;;8.88;4.13;;;;;;;9.47;80.75;100155.13;5027705;28;20148;-75
2022/04/06 10:08:21;;;;;;;10.55;4.10;;;;;;;9.48;80.59;100146.47;5027351;28;20040;-76
2022/04/06 10:10:47;;;;;;;10.10;4.20;;;;;;;9.45;82.32;100149.00;5027469;28;20063;-76
2022/04/06 10:13:12;;;;;;;9.77;4.03;;;;;;;9.45;82.09;100154.22;5026202;28;20018;-76
2022/04/06 10:15:40;;;;;;;9.80;4.30;;;;;;;9.45;82.45;100137.75;5027869;28;20022;-76
2022/04/06 10:18:06;;;;;;;12.35;4.13;;;;;;;9.45;82.78;100135.16;5027187;28;20268;-76
2022/04/06 10:20:59;;;;;;;9.35;3.90;;;;;;;9.47;82.19;100133.44;5027297;28;20025;-76
2022/04/06 10:23:34;;;;;;;8.13;3.97;;;;;;;9.46;81.06;100135.16;5024892;28;20022;-76
2022/04/06 10:26:07;;;;;;;10.77;4.40;;;;;;;9.44;81.94;100136.84;5026139;28;20026;-76
2022/04/06 10:28:33;;;;;;;8.55;3.92;;;;;;;9.44;82.83;100141.19;5026990;28;20022;-76
2022/04/06 10:31:16;;;;;;;9.82;3.92;;;;;;;9.44;83.32;100134.25;5026840;28;20029;-76
2022/04/06 10:33:42;;;;;;;8.38;3.65;;;;;;;9.46;81.91;100139.47;5026727;28;20032;-76
2022/04/06 10:36:19;;;;;;;9.93;4.45;;;;;;;9.44;81.87;100130.78;5026957;28;20018;-77
2022/04/06 10:39:06;;;;;;;10.13;4.22;;;;;;;9.44;82.30;100139.44;5026951;28;20029;-76
2022/04/06 10:41:33;;;;;;;8.57;4.25;;;;;;;9.46;81.69;100129.97;5026638;28;20029;-76
2022/04/06 10:43:59;;;;;;;11.25;4.32;;;;;;;9.45;81.54;100128.22;5026541;28;20042;-76
2022/04/06 10:46:35;;;;;;;9.88;4.53;;;;;;;9.46;82.18;100129.97;5026838;28;20029;-70
2022/04/06 10:49:06;;;;;;;8.57;4.53;;;;;;;9.45;82.59;100125.59;5027036;28;20018;-70
2022/04/06 10:51:35;;;;;;;10.25;4.15;;;;;;;9.47;82.02;100121.31;5026520;28;20096;-70
2022/04/06 10:54:13;;;;;;;11.00;4.22;;;;;;;9.47;82.14;100118.72;5025555;28;20022;-70
2022/04/06 10:56:50;;;;;;;6.60;3.85;;;;;;;9.45;82.65;100117.81;5013431;28;20073;-70
2022/04/06 10:59:17;;;;;;;11.95;4.28;;;;;;;9.45;82.49;100115.22;5025283;28;20272;-70
2022/04/06 11:01:51;;;;;;;11.80;4.38;;;;;;;9.45;81.87;100117.81;5026237;28;20029;-70
2022/04/06 11:04:23;;;;;;;9.00;4.40;;;;;;;9.48;82.13;100107.44;5026274;28;20033;-70
2022/04/06 11:06:59;;;;;;;11.30;4.20;;;;;;;9.50;82.60;100110.06;5026413;28;20033;-70
2022/04/06 11:12:23;;;;;;;9.60;4.10;;;;;;;9.55;82.22;100100.63;5026268;28;20045;-70
2022/04/06 11:14:57;;;;;;;11.43;4.25;;;;;;;9.57;80.99;100104.13;5026350;28;20064;-70
2022/04/06 11:17:32;;;;;;;8.32;4.15;;;;;;;9.60;81.03;100100.69;5026217;28;20079;-71
2022/04/06 11:20:09;;;;;;;10.13;4.13;;;;;;;9.60;80.91;100087.69;5024769;28;20120;-70
2022/04/06 11:23:07;;;;;;;9.68;4.25;;;;;;;9.61;81.06;100092.06;5025924;28;20089;-70
2022/04/06 11:25:32;;;;;;;9.48;4.65;;;;;;;9.66;80.95;100087.78;5020826;28;20028;-70
2022/04/06 11:28:09;;;;;;;9.30;4.10;;;;;;;9.67;80.80;100084.34;5026157;28;20022;-70
2022/04/06 11:30:34;;;;;;;8.98;3.72;;;;;;;9.69;79.84;100080.91;5025715;28;20024;-70
2022/04/06 11:33:02;;;;;;;10.70;4.57;;;;;;;9.71;79.43;100078.34;5024970;28;20175;-70
2022/04/06 11:35:29;;;;;;;10.18;3.72;;;;;;;9.74;79.85;100073.16;5024687;28;20014;-70